Disclaimer

Please do not use the information listed here in-flight or in-navigation, as they are not provided to us by the airports but are provided by volunteers, so they might be outdated.

Search


Regions


Airport information page

Radio informations:
BELFAST TWR - 122.825 MHz
BELFAST APP - 130.85 MHz

Airport informations:
Latitude: 54° 37' 05.00" N
Longitude: 005° 52' 21.00" W
Elevation: 15 feet - 5 meters
Operating hours: Remarks
Operating agency: Civil government, landing fees and diplomatic clearance may be required
Timezone: UTC 0(+1DT) - Last Sunday in March to last Sunday in October
Fuel: Jet A1, without icing nhibitor.

100/130 MIL Spec, low lead, aviation gasoline (BLUE)

Runway information:
04/22 - 6001 x 148 feet< - >1829 x 45 meters

Recent METARs:
EGAC 211820Z AUTO 13012G23KT 100V160 9999 SCT047/// 07/02 Q1013
EGAC 211850Z AUTO 13012KT 9999 FEW038/// BKN049/// 07/03 Q1013
EGAC 211920Z AUTO 14010G22KT 9999 NCD 06/02 Q1014

Airport on the map: